Terminal Aerodrome Forecast
Issued by NWS Portland, OR

Home | Current Version | Previous Version | Text Only | Print | Product List | Glossary On
Versions: 1 2 3 4 5 6 7 8 9 10 11 12 13 14
000
FTUS46 KPQR 281130
TAFAST
TAF
KAST 281130Z 2812/0112 29005KT P6SM -SHRA SCT025 BKN035 OVC050
     FM282200 25009G15KT P6SM -SHRA SCT025 BKN035 OVC045
     FM010100 23010G17KT P6SM -RA BKN035 OVC050=

USA.gov is the U.S. government's official web portal to all federal, state and local government web resources and services.